createdAt,value
2023-03-12T00:01:25.432Z,100727.53
2023-03-12T00:03:54.170Z,100624.09
2023-03-12T00:06:22.399Z,100793.63
2023-03-12T00:08:56.180Z,100793.69
2023-03-12T00:11:24.307Z,100800.03
2023-03-12T00:13:53.677Z,100790.84
2023-03-12T00:16:21.941Z,100781.47
2023-03-12T00:18:52.028Z,100771.66
2023-03-12T00:21:21.961Z,100783.38
2023-03-12T00:23:51.255Z,100786.63
2023-03-12T00:26:20.834Z,100793.22
2023-03-12T00:28:50.339Z,100768.84
2023-03-12T00:31:23.185Z,100783.72
2023-03-12T00:33:51.035Z,100734.06
2023-03-12T00:36:26.984Z,100797.72
2023-03-12T00:38:59.267Z,100793.00
2023-03-12T00:41:27.855Z,100795.69
2023-03-12T00:43:55.872Z,100767.22
2023-03-12T00:46:26.278Z,100686.00
2023-03-12T00:48:54.081Z,100787.81
2023-03-12T00:51:22.001Z,100728.31
2023-03-12T00:53:51.102Z,100759.47
2023-03-12T00:56:18.931Z,100758.97
2023-03-12T00:58:46.724Z,100833.84
2023-03-12T01:01:14.622Z,100743.69
2023-03-12T01:03:44.529Z,100798.41
2023-03-12T01:06:12.833Z,100767.25
2023-03-12T01:08:40.749Z,100799.78
2023-03-12T01:11:12.326Z,100808.53
2023-03-12T01:13:40.068Z,100812.84
2023-03-12T01:16:13.618Z,100789.78
2023-03-12T01:19:20.304Z,100673.00
2023-03-12T01:21:48.106Z,100829.13
2023-03-12T01:24:15.843Z,100826.34
2023-03-12T01:26:46.074Z,100774.50
2023-03-12T01:29:14.139Z,100773.88
2023-03-12T01:31:41.775Z,100842.59
2023-03-12T01:34:11.901Z,100800.84
2023-03-12T01:36:41.232Z,100818.19
2023-03-12T01:39:09.010Z,100791.63
2023-03-12T01:41:37.502Z,100793.38
2023-03-12T01:44:12.793Z,100808.38
2023-03-12T01:46:43.815Z,100814.00
2023-03-12T01:49:28.429Z,100809.50
2023-03-12T01:52:03.748Z,100807.44
2023-03-12T01:55:13.498Z,100823.22
2023-03-12T01:57:58.082Z,100825.41
2023-03-12T02:00:27.718Z,100816.91
2023-03-12T02:03:08.887Z,100805.59
2023-03-12T02:05:47.629Z,100829.34
2023-03-12T02:08:17.819Z,100791.75
2023-03-12T02:10:46.716Z,100826.81
2023-03-12T02:13:17.570Z,100783.09
2023-03-12T02:15:48.245Z,100835.88
2023-03-12T02:18:19.163Z,100849.56
2023-03-12T02:21:21.743Z,100839.69
2023-03-12T02:23:56.323Z,100848.94
2023-03-12T02:26:29.405Z,100831.50
2023-03-12T02:29:00.946Z,100851.00
2023-03-12T02:31:38.801Z,100856.31
2023-03-12T02:34:08.593Z,100830.19
2023-03-12T02:36:37.294Z,100850.72
2023-03-12T02:39:13.042Z,100843.59
2023-03-12T02:42:07.481Z,100850.81
2023-03-12T02:44:37.283Z,100851.19
2023-03-12T02:47:10.976Z,100855.38
2023-03-12T02:49:40.600Z,100857.66
2023-03-12T02:52:10.453Z,100867.56
2023-03-12T02:54:38.115Z,100867.19
2023-03-12T02:57:06.111Z,100794.84
2023-03-12T02:59:34.940Z,100865.19
2023-03-12T03:02:06.987Z,100871.22
2023-03-12T03:04:35.288Z,100886.59
2023-03-12T03:07:03.023Z,100835.50
2023-03-12T03:09:32.407Z,100887.75
2023-03-12T03:12:03.462Z,100902.13
2023-03-12T03:14:33.271Z,100898.41
2023-03-12T03:17:01.251Z,100889.53
2023-03-12T03:19:29.384Z,100888.25
2023-03-12T03:22:00.128Z,100886.44
2023-03-12T03:24:31.044Z,100898.13
2023-03-12T03:26:58.729Z,100812.59
2023-03-12T03:29:26.696Z,100886.38
2023-03-12T03:31:54.472Z,100857.50
2023-03-12T03:34:28.015Z,100853.38
2023-03-12T03:36:55.964Z,100891.56
2023-03-12T03:39:25.502Z,100905.13
2023-03-12T03:41:53.220Z,100901.06
2023-03-12T03:44:24.118Z,100889.56
2023-03-12T03:46:53.481Z,100911.25
2023-03-12T03:49:21.591Z,100908.53
2023-03-12T03:51:51.554Z,100909.50
2023-03-12T03:54:29.605Z,100891.78
2023-03-12T03:57:00.621Z,100908.53
2023-03-12T03:59:28.713Z,100916.63
2023-03-12T04:01:59.684Z,100858.16
2023-03-12T04:04:27.585Z,100923.06
2023-03-12T04:06:55.280Z,100926.09
2023-03-12T04:09:23.285Z,100906.78
2023-03-12T04:11:51.432Z,100869.31
2023-03-12T04:14:19.780Z,100896.22
2023-03-12T04:16:47.389Z,100918.59
2023-03-12T04:19:15.163Z,100933.72
2023-03-12T04:21:43.897Z,100920.28
2023-03-12T04:24:17.531Z,100922.31
2023-03-12T04:26:46.065Z,100891.09
2023-03-12T04:29:15.564Z,100934.81
2023-03-12T04:31:46.683Z,100935.56
2023-03-12T04:34:15.481Z,100834.84
2023-03-12T04:36:46.942Z,100910.72
2023-03-12T04:39:19.562Z,100932.78
2023-03-12T04:41:49.706Z,100918.03
2023-03-12T04:44:17.752Z,100934.72
2023-03-12T04:46:48.486Z,100932.06
2023-03-12T04:49:19.919Z,100891.38
2023-03-12T04:51:47.718Z,100901.50
2023-03-12T04:54:15.535Z,100935.63
2023-03-12T04:56:44.907Z,100939.19
2023-03-12T04:59:15.752Z,100933.00
2023-03-12T05:01:45.030Z,100921.19
2023-03-12T05:04:18.942Z,100933.97
2023-03-12T05:06:47.176Z,100936.72
2023-03-12T05:09:14.913Z,100939.94
2023-03-12T05:11:43.429Z,100926.38
2023-03-12T05:14:13.992Z,100913.44
2023-03-12T05:16:43.429Z,100913.84
2023-03-12T05:19:11.216Z,100935.66
2023-03-12T05:21:43.306Z,100933.22
2023-03-12T05:24:11.838Z,100920.88
2023-03-12T05:26:40.053Z,100914.44
2023-03-12T05:29:25.819Z,100928.19
2023-03-12T05:31:55.510Z,100920.53
2023-03-12T05:34:23.383Z,100924.97
2023-03-12T05:36:51.574Z,100925.28
2023-03-12T05:39:24.043Z,100878.00
2023-03-12T05:41:57.167Z,100915.28
2023-03-12T05:44:26.118Z,100892.47
2023-03-12T05:46:59.148Z,100896.69
2023-03-12T05:49:30.932Z,100904.25
2023-03-12T05:51:59.265Z,100929.47
2023-03-12T05:54:30.223Z,100919.81
2023-03-12T05:57:01.022Z,100936.66
2023-03-12T05:59:29.988Z,100926.03
2023-03-12T06:01:58.524Z,100934.22
2023-03-12T06:04:26.740Z,100934.13
2023-03-12T06:06:54.788Z,100833.28
2023-03-12T06:09:23.356Z,100879.69
2023-03-12T06:11:57.316Z,100848.13
2023-03-12T06:14:27.158Z,100934.34
2023-03-12T06:16:56.030Z,100924.84
2023-03-12T06:19:24.067Z,100904.88
2023-03-12T06:21:51.900Z,100935.78
2023-03-12T06:24:20.100Z,100898.47
2023-03-12T06:26:55.610Z,100925.59
2023-03-12T06:29:23.358Z,100928.69
2023-03-12T06:31:55.254Z,100901.72
2023-03-12T06:34:26.639Z,100941.16
2023-03-12T06:36:54.337Z,100921.25
2023-03-12T06:39:22.128Z,100913.31
2023-03-12T06:41:50.038Z,100906.06
2023-03-12T06:44:20.695Z,100909.38
2023-03-12T06:46:48.797Z,100940.69
2023-03-12T06:49:18.364Z,100861.44
2023-03-12T06:51:46.338Z,100932.84
2023-03-12T06:54:14.521Z,100900.78
2023-03-12T06:56:42.538Z,100918.09
2023-03-12T06:59:10.576Z,100941.66
2023-03-12T07:01:38.769Z,100947.75
2023-03-12T07:04:06.743Z,100773.66
2023-03-12T07:06:42.809Z,100792.97
2023-03-12T07:09:10.866Z,100898.09
2023-03-12T07:11:38.809Z,100928.53
2023-03-12T07:14:12.410Z,100880.03
2023-03-12T07:16:40.380Z,100817.56
2023-03-12T07:19:08.259Z,100949.94
2023-03-12T07:21:35.936Z,100870.91
2023-03-12T07:24:06.922Z,100943.91
2023-03-12T07:26:35.658Z,100908.53
2023-03-12T07:29:05.167Z,100953.94
2023-03-12T07:31:35.963Z,100890.72
2023-03-12T07:34:06.397Z,100954.56
2023-03-12T07:36:39.150Z,100952.03
2023-03-12T07:39:09.567Z,100882.41
2023-03-12T07:41:39.020Z,100798.00
2023-03-12T07:44:09.632Z,100829.13
2023-03-12T07:46:37.426Z,100915.63
2023-03-12T07:49:08.436Z,100903.13
2023-03-12T07:51:36.431Z,100887.22
2023-03-12T07:54:04.458Z,100898.00
2023-03-12T07:56:34.971Z,100938.72
2023-03-12T07:59:02.980Z,100940.94
2023-03-12T08:01:32.384Z,100908.41
2023-03-12T08:04:02.665Z,100907.84
2023-03-12T08:06:34.501Z,100857.81
2023-03-12T08:09:05.082Z,100824.25
2023-03-12T08:11:34.357Z,100859.53
2023-03-12T08:14:02.527Z,100863.03
2023-03-12T08:16:36.825Z,100871.84
2023-03-12T08:19:09.347Z,100941.38
2023-03-12T08:21:40.074Z,100751.34
2023-03-12T08:24:08.746Z,100930.69
2023-03-12T08:26:43.489Z,100883.78
2023-03-12T08:29:12.483Z,100748.31
2023-03-12T08:31:50.352Z,100923.56
2023-03-12T08:34:25.612Z,100814.72
2023-03-12T08:36:56.632Z,100865.44
2023-03-12T08:39:30.045Z,100941.97
2023-03-12T08:42:01.908Z,100848.31
2023-03-12T08:44:29.879Z,100904.53
2023-03-12T08:46:57.954Z,100925.81
2023-03-12T08:49:25.842Z,100915.03
2023-03-12T08:51:58.294Z,100763.44
2023-03-12T08:54:26.151Z,100878.19
2023-03-12T08:56:54.919Z,100888.91
2023-03-12T08:59:23.585Z,100813.25
2023-03-12T09:01:54.076Z,100899.88
2023-03-12T09:04:21.996Z,100898.47
2023-03-12T09:06:50.012Z,100777.06
2023-03-12T09:09:17.986Z,100870.22
2023-03-12T09:11:46.718Z,100883.69
2023-03-12T09:15:03.092Z,100900.47
2023-03-12T09:17:34.126Z,100917.25
2023-03-12T09:20:08.993Z,100805.56
2023-03-12T09:22:37.684Z,100842.06
2023-03-12T09:25:08.286Z,100859.47
2023-03-12T09:27:41.847Z,100859.56
2023-03-12T09:30:16.720Z,100806.28
2023-03-12T09:32:49.976Z,100719.53
2023-03-12T09:35:18.063Z,100837.28
2023-03-12T09:37:49.921Z,100827.34
2023-03-12T09:40:23.961Z,100903.31
2023-03-12T09:43:05.649Z,100901.88
2023-03-12T09:45:41.825Z,100713.44
2023-03-12T09:48:20.348Z,100900.28
2023-03-12T09:50:50.687Z,100857.63
2023-03-12T09:53:44.479Z,100790.09
2023-03-12T09:56:19.952Z,100820.91
2023-03-12T09:58:49.579Z,100885.66
2023-03-12T10:01:52.511Z,100840.84
2023-03-12T10:04:58.073Z,100886.31
2023-03-12T10:08:07.615Z,100828.28
2023-03-12T10:10:51.780Z,100886.81
2023-03-12T10:13:36.763Z,100874.66
2023-03-12T10:16:36.942Z,100869.19
2023-03-12T10:19:46.709Z,100872.53
2023-03-12T10:22:55.671Z,100862.50
2023-03-12T10:25:53.594Z,100784.03
2023-03-12T10:28:52.553Z,100696.72
2023-03-12T10:31:37.503Z,100859.03
2023-03-12T10:34:44.652Z,100676.50
2023-03-12T10:37:26.833Z,100873.31
2023-03-12T10:40:08.385Z,100684.72
2023-03-12T10:42:36.577Z,100750.66
2023-03-12T10:45:10.560Z,100843.88
2023-03-12T10:47:47.257Z,100761.72
2023-03-12T10:50:26.419Z,100786.59
2023-03-12T10:53:24.359Z,100829.78
2023-03-12T10:56:12.283Z,100823.97
2023-03-12T10:58:53.084Z,100782.22
2023-03-12T11:01:28.229Z,100790.44
2023-03-12T11:04:30.564Z,100806.28
2023-03-12T11:07:31.111Z,100815.47
2023-03-12T11:10:19.282Z,100786.16
2023-03-12T11:12:59.246Z,100782.00
2023-03-12T11:15:31.976Z,100816.09
2023-03-12T11:18:29.380Z,100744.50
2023-03-12T11:21:19.687Z,100818.41
2023-03-12T11:24:14.517Z,100723.03
2023-03-12T11:27:01.236Z,100787.47
2023-03-12T11:29:33.493Z,100652.47
2023-03-12T11:32:19.358Z,100775.66
2023-03-12T11:34:49.613Z,100684.59
2023-03-12T11:37:54.143Z,100775.38
2023-03-12T11:40:58.611Z,100787.28
2023-03-12T11:43:56.580Z,100783.22
2023-03-12T11:47:03.212Z,100782.22
2023-03-12T11:50:27.619Z,100768.53
2023-03-12T11:53:32.693Z,100764.63
2023-03-12T11:56:12.643Z,100772.13
2023-03-12T11:58:56.868Z,100727.06
2023-03-12T12:02:18.850Z,100754.03
2023-03-12T12:05:03.137Z,100746.69
2023-03-12T12:07:52.920Z,100736.13
2023-03-12T12:10:58.881Z,100725.91
2023-03-12T12:14:13.165Z,100708.69
2023-03-12T12:17:11.104Z,100697.50
2023-03-12T12:20:38.230Z,100686.13
2023-03-12T12:24:03.320Z,100679.31
2023-03-12T12:26:47.515Z,100669.13
2023-03-12T12:29:59.221Z,100655.72
2023-03-12T12:32:59.474Z,100646.34
2023-03-12T12:35:43.061Z,100632.19
2023-03-12T12:38:21.269Z,100645.44
2023-03-12T12:40:55.918Z,100646.84
2023-03-12T12:43:40.238Z,100645.16
2023-03-12T12:46:32.881Z,100642.50
2023-03-12T12:49:30.138Z,100614.78
2023-03-12T12:52:34.420Z,100535.28
2023-03-12T12:56:14.864Z,100557.97
2023-03-12T12:59:25.670Z,100589.72
2023-03-12T13:02:00.151Z,100462.94
2023-03-12T13:04:43.094Z,100535.63
2023-03-12T13:07:20.904Z,100603.56
2023-03-12T13:10:34.541Z,100575.47
2023-03-12T13:13:35.361Z,100643.03
2023-03-12T13:16:36.550Z,100529.88
2023-03-12T13:19:18.984Z,100634.50
2023-03-12T13:22:48.627Z,100591.28
2023-03-12T13:25:55.655Z,100561.50
2023-03-12T13:28:44.517Z,100630.13
2023-03-12T13:31:46.853Z,100626.91
2023-03-12T13:34:21.753Z,100632.09
2023-03-12T13:37:12.780Z,100454.81
2023-03-12T13:41:24.806Z,100613.66
2023-03-12T13:54:57.864Z,100511.97
2023-03-12T13:57:51.846Z,100484.78
2023-03-12T14:01:00.062Z,100581.91
2023-03-12T14:03:46.446Z,100576.38
2023-03-12T14:06:28.878Z,100486.34
2023-03-12T14:10:33.284Z,100574.19
2023-03-12T14:13:57.620Z,100581.66
2023-03-12T14:17:05.469Z,100507.97
2023-03-12T14:19:38.428Z,100405.19
2023-03-12T14:22:30.657Z,100532.94
2023-03-12T14:25:49.591Z,100398.59
2023-03-12T14:28:34.961Z,100372.13
2023-03-12T14:31:24.276Z,100450.38
2023-03-12T14:38:45.723Z,100556.19
2023-03-12T14:42:03.630Z,100388.09
2023-03-12T14:48:58.953Z,100361.41
2023-03-12T14:52:03.592Z,100537.59
2023-03-12T14:54:33.630Z,100430.84
2023-03-12T14:57:34.966Z,100496.66
2023-03-12T15:00:35.649Z,100344.47
2023-03-12T15:04:14.624Z,100476.03
2023-03-12T15:06:54.070Z,100573.91
2023-03-12T15:09:58.324Z,100393.22
2023-03-12T15:12:37.287Z,100450.09
2023-03-12T15:15:51.499Z,100352.88
2023-03-12T15:19:36.576Z,100349.78
2023-03-12T15:23:01.213Z,100335.09
2023-03-12T15:25:33.958Z,100429.63
2023-03-12T15:28:30.220Z,100517.50
2023-03-12T15:31:56.539Z,100456.16
2023-03-12T15:35:11.897Z,100525.09
2023-03-12T15:37:51.354Z,100322.91
2023-03-12T15:40:30.460Z,100341.88
2023-03-12T15:43:26.500Z,100449.91
2023-03-12T15:46:11.912Z,100442.38
2023-03-12T15:49:11.186Z,100382.81
2023-03-12T15:51:49.837Z,100325.66
2023-03-12T15:55:03.250Z,100405.91
2023-03-12T15:58:32.367Z,100416.97
2023-03-12T16:01:24.257Z,100486.94
2023-03-12T16:03:55.920Z,100481.53
2023-03-12T16:06:33.447Z,100392.00
2023-03-12T16:09:17.914Z,100439.81
2023-03-12T16:11:54.594Z,100487.19
2023-03-12T16:14:51.127Z,100390.50
2023-03-12T16:17:53.358Z,100398.13
2023-03-12T16:20:23.796Z,100473.47
2023-03-12T16:23:08.775Z,100407.69
2023-03-12T16:26:11.032Z,100380.72
2023-03-12T16:28:39.986Z,100400.53
2023-03-12T16:31:15.004Z,100347.09
2023-03-12T16:33:45.243Z,100458.63
2023-03-12T16:38:02.047Z,100461.06
2023-03-12T16:43:53.928Z,100275.09
2023-03-12T16:46:39.334Z,100292.59
2023-03-12T16:53:22.166Z,100298.72
2023-03-12T16:57:23.503Z,100365.84
2023-03-12T17:01:24.325Z,100386.59
2023-03-12T17:06:10.114Z,100366.47
2023-03-12T17:10:25.796Z,100448.34
2023-03-12T17:11:42.101Z,100342.84
2023-03-12T17:14:22.266Z,100318.16
2023-03-12T17:16:50.627Z,100352.75
2023-03-12T17:19:21.120Z,100318.53
2023-03-12T17:21:50.735Z,100254.22
2023-03-12T17:24:19.308Z,100385.28
2023-03-12T17:26:48.825Z,100360.22
2023-03-12T17:29:23.035Z,100299.97
2023-03-12T17:31:51.455Z,100300.00
2023-03-12T17:34:22.717Z,100274.72
2023-03-12T17:36:53.912Z,100387.66
2023-03-12T17:39:24.744Z,100321.03
2023-03-12T17:41:52.789Z,100373.47
2023-03-12T17:44:35.309Z,100217.50
2023-03-12T17:48:21.141Z,100426.19
2023-03-12T17:55:09.878Z,100334.41
2023-03-12T17:57:50.635Z,100409.69
2023-03-12T18:00:23.349Z,100435.22
2023-03-12T18:19:48.341Z,100248.97
2023-03-12T18:24:13.804Z,100409.72
2023-03-12T18:28:21.415Z,100227.09
2023-03-12T18:31:50.206Z,100322.84
2023-03-12T18:34:27.228Z,100347.31
2023-03-12T18:43:13.711Z,100392.16
2023-03-12T18:46:47.364Z,100397.13
2023-03-12T18:50:25.930Z,100387.81
2023-03-12T19:39:26.503Z,100358.78
2023-03-12T19:41:54.673Z,100354.34
2023-03-12T19:44:22.536Z,100249.59
2023-03-12T19:46:53.102Z,100290.44
2023-03-12T19:49:37.595Z,100327.72
2023-03-12T19:52:08.357Z,100318.81
2023-03-12T19:54:44.010Z,100348.41
2023-03-12T19:57:13.488Z,100243.41
2023-03-12T19:59:41.450Z,100369.41
2023-03-12T20:02:16.052Z,100391.25
2023-03-12T20:04:46.725Z,100364.91
2023-03-12T20:07:52.184Z,100354.56
2023-03-12T20:10:27.103Z,100276.16
2023-03-12T20:13:08.880Z,100268.88
2023-03-12T20:15:48.909Z,100304.69
2023-03-12T20:18:17.018Z,100328.09
2023-03-12T20:20:58.130Z,100310.84
2023-03-12T20:24:13.802Z,100194.66
2023-03-12T20:26:42.602Z,100174.22
2023-03-12T20:29:24.675Z,100355.47
2023-03-12T20:31:53.027Z,100240.22
2023-03-12T20:34:31.023Z,100146.47
2023-03-12T20:36:59.233Z,100284.97
2023-03-12T20:39:31.145Z,100348.47
2023-03-12T20:42:00.409Z,100313.91
2023-03-12T20:44:39.219Z,100254.69
2023-03-12T20:47:09.529Z,100398.88
2023-03-12T20:49:48.674Z,100355.25
2023-03-12T20:52:23.627Z,100338.88
2023-03-12T20:54:51.715Z,100216.81
2023-03-12T20:57:19.615Z,100343.13
2023-03-12T20:59:47.578Z,100357.91
2023-03-12T21:02:15.459Z,100354.22
2023-03-12T21:04:45.199Z,100374.13
2023-03-12T21:07:16.237Z,100374.41
2023-03-12T21:09:44.259Z,100346.94
2023-03-12T21:12:14.945Z,100384.84
2023-03-12T21:14:49.367Z,100393.00
2023-03-12T21:17:17.686Z,100385.97
2023-03-12T21:19:48.851Z,100344.53
2023-03-12T21:22:28.830Z,100254.56
2023-03-12T21:24:59.706Z,100294.97
2023-03-12T21:27:28.614Z,100273.34
2023-03-12T21:29:57.603Z,100271.13
2023-03-12T21:32:28.392Z,100325.09
2023-03-12T21:34:56.198Z,100297.72
2023-03-12T21:37:27.710Z,100336.50
2023-03-12T21:40:02.584Z,100370.72
2023-03-12T21:42:38.009Z,100273.78
2023-03-12T21:45:06.968Z,100289.75
2023-03-12T21:47:43.473Z,100336.88
2023-03-12T21:50:14.255Z,100379.84
2023-03-12T21:52:47.819Z,100356.78
2023-03-12T21:55:19.233Z,100373.16
2023-03-12T21:57:47.828Z,100395.16
2023-03-12T22:00:16.658Z,100362.88
2023-03-12T22:02:55.520Z,100357.94
2023-03-12T22:05:23.535Z,100347.25
2023-03-12T22:07:56.578Z,100326.13
2023-03-12T22:10:24.488Z,100354.47
2023-03-12T22:12:52.487Z,100356.03
2023-03-12T22:15:28.190Z,100335.53
2023-03-12T22:17:56.102Z,100353.84
2023-03-12T22:20:25.292Z,100314.31
2023-03-12T22:22:55.326Z,100358.69
2023-03-12T22:25:23.162Z,100318.91
2023-03-12T22:27:51.074Z,100365.34
2023-03-12T22:30:18.944Z,100334.47
2023-03-12T22:32:46.902Z,100310.44
2023-03-12T22:35:15.070Z,100380.25
2023-03-12T22:37:45.455Z,100323.63
2023-03-12T22:40:16.932Z,100297.06
2023-03-12T22:42:56.218Z,100352.34
2023-03-12T22:45:24.181Z,100329.25
2023-03-12T22:47:51.932Z,100320.63
2023-03-12T22:50:19.891Z,100334.59
2023-03-12T22:52:50.561Z,100312.06
2023-03-12T22:55:18.695Z,100294.97
2023-03-12T22:57:49.015Z,100313.78
2023-03-12T23:00:23.120Z,100291.28
2023-03-12T23:02:51.270Z,100205.91
2023-03-12T23:05:19.292Z,100174.13
2023-03-12T23:07:50.349Z,100237.03
2023-03-12T23:10:20.722Z,100176.25
2023-03-12T23:12:48.686Z,100265.34
2023-03-12T23:15:16.922Z,100175.75
2023-03-12T23:17:47.303Z,100221.41
2023-03-12T23:20:15.239Z,100353.59
2023-03-12T23:22:43.042Z,100332.16
2023-03-12T23:25:10.877Z,100284.00
2023-03-12T23:27:38.531Z,100331.84
2023-03-12T23:30:07.333Z,100326.66
2023-03-12T23:32:35.273Z,100323.38
2023-03-12T23:35:03.420Z,100235.44
2023-03-12T23:37:31.354Z,100327.53
2023-03-12T23:39:59.259Z,100312.00
2023-03-12T23:42:28.110Z,100307.19
2023-03-12T23:44:55.872Z,100313.56
2023-03-12T23:47:23.900Z,100312.00
2023-03-12T23:49:51.611Z,100299.78
2023-03-12T23:52:19.632Z,100290.03
2023-03-12T23:54:47.522Z,100239.19
2023-03-12T23:57:17.431Z,100250.56
2023-03-12T23:59:45.344Z,100219.66
